createdAt,value
2022-12-03T00:01:17.771Z,9.90
2022-12-03T00:03:45.604Z,11.40
2022-12-03T00:06:12.305Z,12.50
2022-12-03T00:08:38.920Z,10.27
2022-12-03T00:11:11.136Z,12.50
2022-12-03T00:13:38.027Z,10.35
2022-12-03T00:16:06.245Z,10.48
2022-12-03T00:18:36.013Z,10.15
2022-12-03T00:21:02.665Z,10.77
2022-12-03T00:23:29.536Z,15.25
2022-12-03T00:25:57.120Z,18.00
2022-12-03T00:28:23.751Z,13.43
2022-12-03T00:30:50.399Z,12.85
2022-12-03T00:33:17.162Z,14.18
2022-12-03T00:35:43.808Z,12.93
2022-12-03T00:38:10.747Z,11.85
2022-12-03T00:40:38.122Z,13.13
2022-12-03T00:43:06.390Z,15.35
2022-12-03T00:45:33.168Z,11.40
2022-12-03T00:47:59.766Z,11.80
2022-12-03T00:50:26.923Z,13.48
2022-12-03T00:52:53.490Z,13.05
2022-12-03T00:55:20.263Z,14.38
2022-12-03T00:57:50.639Z,11.38
2022-12-03T01:00:17.610Z,12.85
2022-12-03T01:02:44.206Z,13.50
2022-12-03T01:05:11.347Z,10.35
2022-12-03T01:07:38.357Z,12.75
2022-12-03T01:10:05.700Z,10.23
2022-12-03T01:12:32.373Z,12.68
2022-12-03T01:14:59.012Z,13.13
2022-12-03T01:17:26.048Z,14.00
2022-12-03T01:19:52.648Z,12.65
2022-12-03T01:22:19.220Z,13.52
2022-12-03T01:24:46.171Z,13.18
2022-12-03T01:27:12.850Z,14.07
2022-12-03T01:29:39.985Z,12.15
2022-12-03T01:32:10.315Z,12.50
2022-12-03T01:34:37.049Z,13.80
2022-12-03T01:37:05.175Z,12.95
2022-12-03T01:39:32.001Z,13.55
2022-12-03T01:41:59.124Z,13.57
2022-12-03T01:44:28.585Z,11.73
2022-12-03T01:46:57.203Z,12.85
2022-12-03T01:49:28.331Z,12.45
2022-12-03T01:51:57.497Z,13.32
2022-12-03T01:54:33.969Z,11.23
2022-12-03T01:57:03.495Z,13.50
2022-12-03T01:59:37.291Z,13.50
2022-12-03T02:04:49.350Z,15.93
2022-12-03T02:07:23.718Z,15.82
2022-12-03T02:09:51.229Z,16.45
2022-12-03T02:12:23.197Z,17.73
2022-12-03T02:14:50.541Z,17.00
2022-12-03T02:17:17.904Z,13.68
2022-12-03T02:19:44.686Z,13.70
2022-12-03T02:22:27.472Z,15.00
2022-12-03T02:24:58.971Z,13.65
2022-12-03T02:27:28.226Z,14.88
2022-12-03T02:29:55.087Z,16.45
2022-12-03T02:32:22.703Z,13.40
2022-12-03T02:34:52.498Z,12.63
2022-12-03T02:37:26.311Z,12.23
2022-12-03T02:39:56.711Z,13.27
2022-12-03T02:42:23.844Z,16.20
2022-12-03T02:44:50.780Z,15.88
2022-12-03T02:47:18.179Z,21.35
2022-12-03T02:49:45.195Z,17.98
2022-12-03T02:52:11.910Z,14.93
2022-12-03T02:54:38.751Z,17.33
2022-12-03T02:57:08.820Z,16.65
2022-12-03T02:59:35.529Z,17.02
2022-12-03T03:02:02.381Z,16.45
2022-12-03T03:04:29.093Z,15.25
2022-12-03T03:06:56.195Z,17.38
2022-12-03T03:09:22.981Z,15.15
2022-12-03T03:11:49.573Z,17.77
2022-12-03T03:14:16.329Z,17.08
2022-12-03T03:16:43.062Z,14.13
2022-12-03T03:19:10.149Z,13.48
2022-12-03T03:21:36.822Z,17.25
2022-12-03T03:24:07.737Z,19.52
2022-12-03T03:26:35.255Z,18.88
2022-12-03T03:29:04.934Z,15.25
2022-12-03T03:31:32.093Z,13.43
2022-12-03T03:33:58.784Z,15.27
2022-12-03T03:36:29.090Z,18.30
2022-12-03T03:38:58.817Z,14.52
2022-12-03T03:41:27.507Z,13.48
2022-12-03T03:43:54.813Z,12.98
2022-12-03T03:46:22.322Z,15.30
2022-12-03T03:48:50.871Z,14.48
2022-12-03T03:51:19.609Z,15.35
2022-12-03T03:53:49.191Z,16.52
2022-12-03T03:56:22.552Z,13.65
2022-12-03T03:58:52.265Z,17.65
2022-12-03T04:01:19.409Z,16.40
2022-12-03T04:03:46.231Z,16.85
2022-12-03T04:06:12.934Z,17.23
2022-12-03T04:08:39.587Z,17.95
2022-12-03T04:11:06.436Z,16.13
2022-12-03T04:13:33.132Z,15.98
2022-12-03T04:15:59.712Z,17.02
2022-12-03T04:18:27.272Z,15.57
2022-12-03T04:20:54.002Z,17.23
2022-12-03T04:23:20.589Z,16.30
2022-12-03T04:25:47.193Z,18.08
2022-12-03T04:28:13.810Z,16.17
2022-12-03T04:30:40.535Z,18.02
2022-12-03T04:33:07.292Z,19.20
2022-12-03T04:35:37.788Z,18.63
2022-12-03T04:38:05.261Z,17.92
2022-12-03T04:40:37.568Z,22.17
2022-12-03T04:43:04.361Z,17.35
2022-12-03T04:45:34.449Z,17.45
2022-12-03T04:48:01.115Z,18.27
2022-12-03T04:50:27.720Z,19.13
2022-12-03T04:52:55.320Z,21.40
2022-12-03T04:55:23.330Z,17.85
2022-12-03T04:57:52.942Z,16.77
2022-12-03T05:00:19.634Z,17.88
2022-12-03T05:02:46.423Z,16.38
2022-12-03T05:05:13.380Z,16.42
2022-12-03T05:07:40.399Z,18.27
2022-12-03T05:10:08.082Z,18.00
2022-12-03T05:12:38.333Z,18.55
2022-12-03T05:15:06.770Z,19.38
2022-12-03T05:17:37.302Z,15.35
2022-12-03T05:20:04.123Z,19.45
2022-12-03T05:22:33.354Z,22.95
2022-12-03T05:24:59.996Z,21.73
2022-12-03T05:27:26.614Z,21.75
2022-12-03T05:29:53.385Z,20.65
2022-12-03T05:32:20.142Z,19.63
2022-12-03T05:34:46.853Z,21.10
2022-12-03T05:37:17.963Z,18.15
2022-12-03T05:39:45.601Z,20.67
2022-12-03T05:42:15.676Z,18.85
2022-12-03T05:44:42.308Z,16.98
2022-12-03T05:47:09.046Z,20.17
2022-12-03T05:49:37.593Z,18.63
2022-12-03T05:52:04.812Z,20.67
2022-12-03T05:54:34.416Z,20.05
2022-12-03T05:57:04.106Z,22.17
2022-12-03T06:02:02.711Z,22.15
2022-12-03T06:04:29.394Z,21.30
2022-12-03T06:07:01.406Z,30.98
2022-12-03T06:09:36.034Z,21.88
2022-12-03T06:12:02.808Z,20.42
2022-12-03T06:14:30.881Z,22.85
2022-12-03T06:16:57.587Z,23.38
2022-12-03T06:19:24.205Z,23.02
2022-12-03T06:21:50.837Z,22.00
2022-12-03T06:24:19.278Z,23.63
2022-12-03T06:26:48.956Z,23.00
2022-12-03T06:29:16.341Z,26.67
2022-12-03T06:31:43.036Z,20.25
2022-12-03T06:34:13.745Z,20.20
2022-12-03T06:36:40.434Z,19.05
2022-12-03T06:39:09.003Z,20.20
2022-12-03T06:41:44.284Z,19.17
2022-12-03T06:44:11.145Z,18.67
2022-12-03T06:46:37.763Z,21.02
2022-12-03T06:49:04.377Z,19.60
2022-12-03T06:51:31.030Z,19.90
2022-12-03T06:53:57.606Z,22.67
2022-12-03T06:56:24.625Z,24.90
2022-12-03T06:58:51.768Z,23.73
2022-12-03T07:01:18.674Z,24.90
2022-12-03T07:03:45.298Z,26.27
2022-12-03T07:06:12.225Z,27.73
2022-12-03T07:08:38.877Z,22.80
2022-12-03T07:11:07.393Z,23.30
2022-12-03T07:13:34.023Z,22.60
2022-12-03T07:16:01.812Z,22.15
2022-12-03T07:18:28.550Z,24.08
2022-12-03T07:20:55.374Z,24.00
2022-12-03T07:23:21.974Z,22.40
2022-12-03T07:25:51.602Z,24.73
2022-12-03T07:28:21.569Z,22.25
2022-12-03T07:30:48.206Z,20.55
2022-12-03T07:33:14.814Z,23.05
2022-12-03T07:35:42.468Z,22.25
2022-12-03T07:38:09.019Z,19.05
2022-12-03T07:40:35.634Z,19.80
2022-12-03T07:43:02.336Z,17.95
2022-12-03T07:45:29.382Z,17.60
2022-12-03T07:47:56.758Z,15.25
2022-12-03T07:50:23.354Z,17.83
2022-12-03T07:52:50.316Z,18.38
2022-12-03T07:55:17.019Z,17.67
2022-12-03T07:57:46.708Z,16.38
2022-12-03T08:00:14.396Z,15.57
2022-12-03T08:02:42.563Z,14.55
2022-12-03T08:05:14.323Z,21.25
2022-12-03T08:07:44.474Z,16.27
2022-12-03T08:10:11.277Z,18.65
2022-12-03T08:12:42.554Z,18.05
2022-12-03T08:15:12.232Z,19.48
2022-12-03T08:17:38.894Z,19.45
2022-12-03T08:20:23.294Z,16.23
2022-12-03T08:22:51.627Z,20.63
2022-12-03T08:25:28.386Z,19.17
2022-12-03T08:28:23.289Z,19.25
2022-12-03T08:31:05.701Z,16.65
2022-12-03T08:33:34.275Z,19.83
2022-12-03T08:36:09.164Z,17.85
2022-12-03T08:38:35.766Z,18.60
2022-12-03T08:41:02.516Z,17.65
2022-12-03T08:43:33.575Z,16.60
2022-12-03T08:46:00.368Z,18.58
2022-12-03T08:48:47.069Z,16.00
2022-12-03T08:51:21.407Z,19.48
2022-12-03T08:54:42.784Z,18.45
2022-12-03T08:57:34.974Z,18.40
2022-12-03T09:00:19.382Z,17.23
2022-12-03T09:02:51.712Z,18.20
2022-12-03T09:05:38.538Z,19.65
2022-12-03T09:08:05.328Z,19.38
2022-12-03T09:10:32.127Z,20.17
2022-12-03T09:12:58.746Z,17.35
2022-12-03T09:15:25.486Z,17.55
2022-12-03T09:17:52.575Z,16.30
2022-12-03T09:20:19.373Z,15.27
2022-12-03T09:22:46.227Z,15.48
2022-12-03T09:25:12.906Z,17.05
2022-12-03T09:27:39.587Z,14.18
2022-12-03T09:30:06.869Z,15.70
2022-12-03T09:32:33.647Z,15.15
2022-12-03T09:35:01.674Z,16.02
2022-12-03T09:37:40.715Z,13.45
2022-12-03T09:40:08.617Z,14.63
2022-12-03T09:42:38.126Z,15.20
2022-12-03T09:45:09.820Z,13.65
2022-12-03T09:47:37.799Z,14.77
2022-12-03T09:50:45.310Z,14.30
2022-12-03T09:53:14.535Z,15.45
2022-12-03T09:55:44.096Z,15.27
2022-12-03T09:58:18.554Z,14.98
2022-12-03T10:00:52.164Z,17.85
2022-12-03T10:03:30.829Z,16.93
2022-12-03T10:05:57.974Z,17.65
2022-12-03T10:08:33.036Z,17.23
2022-12-03T10:10:59.807Z,18.55
2022-12-03T10:13:30.001Z,20.30
2022-12-03T10:16:00.706Z,20.20
2022-12-03T10:18:32.078Z,18.83
2022-12-03T10:21:00.269Z,20.13
2022-12-03T10:23:29.793Z,18.77
2022-12-03T10:25:56.337Z,21.88
2022-12-03T10:28:41.607Z,20.00
2022-12-03T10:31:12.726Z,19.75
2022-12-03T10:33:42.624Z,20.60
2022-12-03T10:36:24.966Z,23.08
2022-12-03T10:39:06.830Z,20.65
2022-12-03T10:41:33.806Z,20.70
2022-12-03T10:44:28.575Z,23.13
2022-12-03T10:47:14.572Z,23.83
2022-12-03T10:49:43.561Z,24.42
2022-12-03T10:52:40.461Z,22.80
2022-12-03T10:55:12.244Z,27.35
2022-12-03T10:57:45.223Z,26.60
2022-12-03T11:00:20.829Z,22.10
2022-12-03T11:02:54.678Z,23.20
2022-12-03T11:05:29.759Z,25.02
2022-12-03T11:08:00.818Z,20.38
2022-12-03T11:10:27.706Z,21.52
2022-12-03T11:13:39.653Z,21.77
2022-12-03T11:16:06.747Z,21.60
2022-12-03T11:18:36.071Z,22.65
2022-12-03T11:21:09.440Z,25.45
2022-12-03T11:23:45.028Z,22.13
2022-12-03T11:26:19.735Z,25.15
2022-12-03T11:28:46.621Z,21.85
2022-12-03T11:31:41.807Z,23.08
2022-12-03T11:37:12.109Z,21.25
2022-12-03T11:39:51.954Z,20.10
2022-12-03T11:42:21.911Z,17.58
2022-12-03T11:45:09.142Z,20.42
2022-12-03T11:47:43.190Z,20.90
2022-12-03T11:50:16.147Z,20.45
2022-12-03T11:52:45.375Z,20.70
2022-12-03T11:55:25.197Z,20.30
2022-12-03T11:57:59.418Z,21.67
2022-12-03T12:00:29.606Z,19.25
2022-12-03T12:02:58.063Z,19.48
2022-12-03T12:05:34.976Z,19.58
2022-12-03T12:08:02.730Z,20.67
2022-12-03T12:10:41.364Z,20.10
2022-12-03T12:13:26.846Z,20.08
2022-12-03T12:15:56.810Z,18.30
2022-12-03T12:18:53.739Z,23.35
2022-12-03T12:21:50.799Z,24.65
2022-12-03T12:24:32.502Z,23.48
2022-12-03T12:27:17.357Z,24.35
2022-12-03T12:32:11.602Z,26.35
2022-12-03T12:34:45.001Z,24.70
2022-12-03T12:37:22.517Z,26.42
2022-12-03T12:39:54.770Z,24.98
2022-12-03T12:42:34.754Z,25.50
2022-12-03T12:45:22.977Z,29.50
2022-12-03T12:48:10.046Z,31.92
2022-12-03T12:50:38.043Z,31.50
2022-12-03T12:53:14.223Z,28.13
2022-12-03T12:55:42.561Z,29.48
2022-12-03T12:58:20.002Z,29.23
2022-12-03T13:00:56.278Z,23.55
2022-12-03T13:03:36.606Z,26.48
2022-12-03T13:06:04.319Z,27.65
2022-12-03T13:08:39.105Z,27.73
2022-12-03T13:11:11.016Z,24.33
2022-12-03T13:13:44.061Z,27.30
2022-12-03T13:16:25.731Z,25.75
2022-12-03T13:19:20.570Z,23.55
2022-12-03T13:21:49.470Z,27.13
2022-12-03T13:24:34.271Z,25.77
2022-12-03T13:27:19.232Z,25.30
2022-12-03T13:32:19.011Z,27.20
2022-12-03T13:34:46.113Z,25.40
2022-12-03T13:37:15.786Z,25.30
2022-12-03T13:39:48.978Z,24.13
2022-12-03T13:42:21.993Z,22.92
2022-12-03T13:44:49.970Z,25.70
2022-12-03T13:47:20.854Z,24.38
2022-12-03T13:50:00.820Z,26.70
2022-12-03T13:52:27.575Z,20.70
2022-12-03T13:54:56.188Z,24.15
2022-12-03T13:57:23.471Z,25.60
2022-12-03T13:59:50.419Z,24.15
2022-12-03T14:02:17.885Z,22.98
2022-12-03T14:04:47.802Z,26.70
2022-12-03T14:07:14.486Z,24.83
2022-12-03T14:09:41.066Z,28.48
2022-12-03T14:12:07.666Z,29.00
2022-12-03T14:14:34.299Z,25.17
2022-12-03T14:17:01.057Z,27.30
2022-12-03T14:19:32.995Z,25.48
2022-12-03T14:21:59.584Z,25.80
2022-12-03T14:24:26.335Z,30.15
2022-12-03T14:26:52.979Z,27.92
2022-12-03T14:29:19.605Z,27.80
2022-12-03T14:31:46.381Z,29.08
2022-12-03T14:34:13.251Z,27.17
2022-12-03T14:36:39.973Z,24.95
2022-12-03T14:39:06.658Z,21.20
2022-12-03T14:41:33.305Z,30.15
2022-12-03T14:43:59.912Z,25.23
2022-12-03T14:46:26.668Z,31.98
2022-12-03T14:48:53.257Z,35.42
2022-12-03T14:51:22.140Z,27.17
2022-12-03T14:53:51.705Z,35.30
2022-12-03T14:56:19.043Z,30.08
2022-12-03T14:58:45.609Z,26.95
2022-12-03T15:01:12.234Z,37.20
2022-12-03T15:03:38.802Z,33.40
2022-12-03T15:06:08.069Z,31.52
2022-12-03T15:08:37.750Z,35.10
2022-12-03T15:11:04.352Z,32.80
2022-12-03T15:16:04.726Z,38.38
2022-12-03T15:18:31.236Z,32.95
2022-12-03T15:20:58.035Z,31.10
2022-12-03T15:23:24.695Z,30.45
2022-12-03T15:25:51.230Z,28.27
2022-12-03T15:28:18.260Z,31.63
2022-12-03T15:30:45.057Z,31.33
2022-12-03T15:33:11.639Z,28.92
2022-12-03T15:35:38.247Z,28.45
2022-12-03T15:38:04.850Z,28.23
2022-12-03T15:40:31.484Z,30.40
2022-12-03T15:42:58.077Z,28.90
2022-12-03T15:45:28.783Z,32.60
2022-12-03T15:47:55.410Z,29.17
2022-12-03T15:50:22.051Z,32.10
2022-12-03T15:55:20.265Z,35.83
2022-12-03T15:57:46.930Z,26.17
2022-12-03T16:00:14.351Z,25.83
2022-12-03T16:02:41.249Z,37.80
2022-12-03T16:05:11.088Z,32.92
2022-12-03T16:07:39.757Z,35.80
2022-12-03T16:10:08.306Z,40.33
2022-12-03T16:12:35.038Z,34.05
2022-12-03T16:15:01.713Z,32.22
2022-12-03T16:17:28.335Z,28.58
2022-12-03T16:19:55.208Z,35.15
2022-12-03T16:22:21.951Z,30.33
2022-12-03T16:24:48.992Z,41.55
2022-12-03T16:27:15.566Z,46.28
2022-12-03T16:29:42.786Z,42.10
2022-12-03T16:32:09.440Z,44.03
2022-12-03T16:34:36.056Z,39.25
2022-12-03T16:37:02.744Z,45.75
2022-12-03T16:39:29.356Z,55.28
2022-12-03T16:42:01.440Z,51.40
2022-12-03T16:44:28.063Z,51.35
2022-12-03T16:46:54.876Z,46.85
2022-12-03T16:49:21.534Z,34.25
2022-12-03T16:51:48.263Z,51.67
2022-12-03T16:54:15.820Z,47.30
2022-12-03T16:56:45.686Z,48.65
2022-12-03T16:59:12.295Z,41.17
2022-12-03T17:01:39.039Z,46.55
2022-12-03T17:06:37.133Z,32.00
2022-12-03T17:09:03.896Z,207.30
2022-12-03T17:11:30.701Z,41.90
2022-12-03T17:13:57.296Z,39.20
2022-12-03T17:16:24.117Z,37.20
2022-12-03T17:18:50.730Z,31.15
2022-12-03T17:21:17.385Z,34.67
2022-12-03T17:23:44.545Z,31.55
2022-12-03T17:26:11.234Z,41.92
2022-12-03T17:28:40.861Z,31.27
2022-12-03T17:31:07.541Z,37.08
2022-12-03T17:33:34.151Z,64.97
2022-12-03T17:36:03.955Z,59.72
2022-12-03T17:38:35.667Z,41.30
2022-12-03T17:41:06.125Z,153.35
2022-12-03T17:43:37.654Z,57.20
2022-12-03T17:46:04.748Z,50.78
2022-12-03T17:48:34.113Z,35.08
2022-12-03T17:51:04.759Z,44.25
2022-12-03T17:53:33.317Z,45.55
2022-12-03T17:55:59.887Z,62.33
2022-12-03T17:58:26.716Z,61.67
2022-12-03T18:00:57.292Z,45.70
2022-12-03T18:03:29.079Z,36.67
2022-12-03T18:05:55.716Z,48.67
2022-12-03T18:08:22.329Z,35.10
2022-12-03T18:10:49.018Z,41.28
2022-12-03T18:15:47.297Z,42.30
2022-12-03T18:18:13.969Z,35.92
2022-12-03T18:20:40.723Z,50.40
2022-12-03T18:23:07.278Z,74.45
2022-12-03T18:25:33.876Z,51.45
2022-12-03T18:28:03.922Z,35.70
2022-12-03T18:30:30.667Z,41.40
2022-12-03T18:32:57.572Z,43.63
2022-12-03T18:35:24.524Z,42.67
2022-12-03T18:37:51.631Z,70.30
2022-12-03T18:40:23.247Z,63.22
2022-12-03T18:42:50.206Z,39.95
2022-12-03T18:45:17.449Z,41.20
2022-12-03T18:47:44.505Z,35.03
2022-12-03T18:50:11.824Z,43.80
2022-12-03T18:52:39.407Z,45.03
2022-12-03T18:55:07.200Z,50.30
2022-12-03T18:57:34.514Z,148.85
2022-12-03T19:00:01.307Z,30.92
2022-12-03T19:03:00.998Z,32.22
2022-12-03T19:05:20.077Z,34.95
2022-12-03T19:07:46.751Z,64.50
2022-12-03T19:10:13.460Z,55.53
2022-12-03T19:12:40.049Z,51.00
2022-12-03T19:15:07.909Z,42.20
2022-12-03T19:17:34.484Z,39.40
2022-12-03T19:20:01.128Z,39.00
2022-12-03T19:22:32.903Z,57.55
2022-12-03T19:24:59.501Z,47.33
2022-12-03T19:27:28.009Z,47.60
2022-12-03T19:29:55.029Z,46.35
2022-12-03T19:32:22.369Z,76.15
2022-12-03T19:34:49.317Z,40.35
2022-12-03T19:37:17.146Z,57.10
2022-12-03T19:39:43.832Z,46.70
2022-12-03T19:42:10.483Z,46.95
2022-12-03T19:44:37.154Z,32.38
2022-12-03T19:47:03.756Z,42.05
2022-12-03T19:49:31.653Z,35.45
2022-12-03T19:51:58.264Z,47.50
2022-12-03T19:54:24.946Z,46.38
2022-12-03T19:56:52.084Z,89.32
2022-12-03T19:59:18.747Z,32.45
2022-12-03T20:01:45.569Z,33.65
2022-12-03T20:04:15.961Z,32.83
2022-12-03T20:06:42.931Z,43.38
2022-12-03T20:09:14.775Z,45.10
2022-12-03T20:11:44.040Z,37.78
2022-12-03T20:14:14.163Z,39.60
2022-12-03T20:16:41.222Z,30.48
2022-12-03T20:19:12.249Z,35.58
2022-12-03T20:21:40.097Z,48.72
2022-12-03T20:24:07.710Z,43.90
2022-12-03T20:26:34.411Z,39.03
2022-12-03T20:29:01.374Z,43.88
2022-12-03T20:31:31.422Z,34.45
2022-12-03T20:34:01.480Z,39.38
2022-12-03T20:36:30.529Z,53.15
2022-12-03T20:38:59.797Z,52.60
2022-12-03T20:41:26.724Z,41.17
2022-12-03T20:43:55.079Z,89.50
2022-12-03T20:46:24.132Z,94.53
2022-12-03T20:48:52.002Z,77.85
2022-12-03T20:51:20.226Z,95.32
2022-12-03T20:53:47.729Z,73.05
2022-12-03T20:58:54.583Z,86.43
2022-12-03T21:01:23.938Z,59.63
2022-12-03T21:03:51.944Z,100.05
2022-12-03T21:06:19.551Z,62.95
2022-12-03T21:08:46.507Z,76.25
2022-12-03T21:11:16.057Z,104.40
2022-12-03T21:13:43.066Z,42.58
2022-12-03T21:16:13.098Z,74.40
2022-12-03T21:18:40.400Z,70.40
2022-12-03T21:21:08.307Z,95.38
2022-12-03T21:23:54.110Z,78.97
2022-12-03T21:26:26.055Z,55.28
2022-12-03T21:29:00.965Z,56.53
2022-12-03T21:31:27.904Z,62.22
2022-12-03T21:33:56.041Z,39.88
2022-12-03T21:36:23.268Z,119.47
2022-12-03T21:38:50.246Z,37.50
2022-12-03T21:41:18.631Z,36.00
2022-12-03T21:43:50.231Z,69.97
2022-12-03T21:47:09.508Z,46.95
2022-12-03T21:49:06.277Z,59.92
2022-12-03T21:51:33.013Z,74.28
2022-12-03T21:53:59.618Z,40.50
2022-12-03T21:56:30.450Z,48.45
2022-12-03T21:58:57.958Z,39.20
2022-12-03T22:01:27.702Z,126.13
2022-12-03T22:03:55.077Z,58.58
2022-12-03T22:06:22.480Z,97.07
2022-12-03T22:08:58.224Z,71.25
2022-12-03T22:11:25.032Z,54.92
2022-12-03T22:13:54.676Z,74.55
2022-12-03T22:16:22.031Z,50.72
2022-12-03T22:18:49.690Z,40.10
2022-12-03T22:21:20.425Z,47.47
2022-12-03T22:23:47.043Z,57.85
2022-12-03T22:26:15.921Z,80.45
2022-12-03T22:28:47.687Z,37.85
2022-12-03T22:31:15.441Z,108.55
2022-12-03T22:33:47.974Z,72.45
2022-12-03T22:36:20.078Z,69.57
2022-12-03T22:38:47.572Z,38.65
2022-12-03T22:41:19.013Z,51.30
2022-12-03T22:43:50.057Z,90.07
2022-12-03T22:46:19.745Z,131.18
2022-12-03T22:48:46.934Z,73.82
2022-12-03T22:51:23.164Z,112.45
2022-12-03T22:53:57.765Z,109.03
2022-12-03T22:58:52.039Z,99.65
2022-12-03T23:01:25.874Z,40.20
2022-12-03T23:03:55.282Z,108.63
2022-12-03T23:06:22.956Z,102.45
2022-12-03T23:08:50.684Z,84.50
2022-12-03T23:11:17.853Z,59.38
2022-12-03T23:13:44.478Z,66.93
2022-12-03T23:16:16.004Z,101.47
2022-12-03T23:18:42.924Z,67.55
2022-12-03T23:21:09.559Z,43.72
2022-12-03T23:23:36.164Z,81.90
2022-12-03T23:26:06.615Z,60.03
2022-12-03T23:28:35.987Z,67.15
2022-12-03T23:31:03.544Z,70.88
2022-12-03T23:33:35.278Z,70.32
2022-12-03T23:36:08.188Z,44.58
2022-12-03T23:38:37.987Z,66.57
2022-12-03T23:41:06.173Z,36.83
2022-12-03T23:43:32.828Z,114.97
2022-12-03T23:46:08.094Z,201.70
2022-12-03T23:48:35.658Z,74.45
2022-12-03T23:51:16.144Z,113.07
2022-12-03T23:53:42.800Z,59.92
2022-12-03T23:56:13.714Z,50.47
2022-12-03T23:58:44.138Z,55.33
